createdAt,value
2023-06-07T00:02:36.847Z,44.13
2023-06-07T00:05:11.274Z,44.16
2023-06-07T00:07:38.822Z,44.24
2023-06-07T00:10:07.807Z,44.31
2023-06-07T00:12:35.747Z,44.36
2023-06-07T00:15:03.399Z,44.35
2023-06-07T00:17:31.396Z,44.53
2023-06-07T00:19:59.104Z,44.52
2023-06-07T00:22:31.405Z,44.43
2023-06-07T00:24:59.006Z,44.62
2023-06-07T00:27:26.631Z,44.70
2023-06-07T00:29:54.256Z,44.77
2023-06-07T00:32:21.824Z,44.78
2023-06-07T00:34:49.395Z,44.80
2023-06-07T00:37:16.955Z,44.92
2023-06-07T00:39:45.869Z,44.95
2023-06-07T00:42:13.481Z,44.99
2023-06-07T00:44:41.244Z,45.11
2023-06-07T00:47:09.225Z,45.09
2023-06-07T00:49:36.860Z,44.99
2023-06-07T00:52:05.872Z,45.16
2023-06-07T00:54:33.486Z,45.30
2023-06-07T00:57:02.407Z,45.10
2023-06-07T00:59:30.612Z,45.37
2023-06-07T01:02:02.250Z,45.36
2023-06-07T01:04:30.299Z,45.43
2023-06-07T01:06:58.347Z,45.48
2023-06-07T01:09:26.745Z,45.52
2023-06-07T01:11:56.106Z,45.62
2023-06-07T01:14:26.594Z,45.58
2023-06-07T01:16:55.191Z,45.71
2023-06-07T01:19:24.739Z,45.60
2023-06-07T01:21:58.408Z,45.81
2023-06-07T01:24:30.869Z,45.74
2023-06-07T01:27:00.275Z,45.97
2023-06-07T01:29:28.419Z,45.98
2023-06-07T01:31:58.470Z,46.04
2023-06-07T01:34:26.781Z,45.93
2023-06-07T01:36:56.886Z,46.08
2023-06-07T01:39:27.921Z,46.08
2023-06-07T01:41:56.054Z,46.09
2023-06-07T01:44:23.718Z,46.15
2023-06-07T01:46:51.461Z,46.18
2023-06-07T01:49:20.499Z,46.24
2023-06-07T01:51:48.074Z,46.25
2023-06-07T01:54:17.513Z,46.26
2023-06-07T01:57:05.395Z,46.37
2023-06-07T01:59:43.237Z,46.48
2023-06-07T02:02:19.555Z,46.50
2023-06-07T02:04:49.882Z,46.44
2023-06-07T02:07:24.688Z,46.46
2023-06-07T02:09:55.900Z,46.58
2023-06-07T02:12:24.881Z,46.89
2023-06-07T02:14:53.754Z,46.77
2023-06-07T02:17:21.937Z,46.81
2023-06-07T02:19:49.615Z,46.77
2023-06-07T02:22:17.345Z,46.76
2023-06-07T02:24:45.440Z,46.73
2023-06-07T02:27:14.016Z,46.77
2023-06-07T02:29:43.080Z,46.86
2023-06-07T02:32:10.744Z,47.08
2023-06-07T02:34:38.322Z,46.92
2023-06-07T02:37:06.480Z,47.17
2023-06-07T02:39:34.478Z,46.97
2023-06-07T02:42:02.046Z,47.18
2023-06-07T02:44:29.904Z,47.18
2023-06-07T02:46:58.838Z,47.14
2023-06-07T02:49:26.751Z,47.37
2023-06-07T02:51:54.372Z,47.31
2023-06-07T02:54:21.925Z,47.30
2023-06-07T02:56:49.528Z,47.35
2023-06-07T02:59:17.109Z,47.27
2023-06-07T03:01:44.693Z,47.36
2023-06-07T03:04:13.625Z,47.36
2023-06-07T03:06:42.342Z,47.51
2023-06-07T03:09:10.210Z,47.46
2023-06-07T03:11:37.778Z,47.42
2023-06-07T03:14:05.388Z,47.45
2023-06-07T03:16:33.246Z,47.51
2023-06-07T03:19:00.862Z,47.47
2023-06-07T03:21:30.302Z,47.47
2023-06-07T03:23:57.942Z,47.50
2023-06-07T03:26:26.235Z,47.73
2023-06-07T03:28:55.741Z,47.58
2023-06-07T03:31:24.450Z,47.78
2023-06-07T03:33:52.189Z,47.84
2023-06-07T03:36:22.423Z,47.75
2023-06-07T03:38:51.386Z,47.66
2023-06-07T03:41:18.984Z,47.76
2023-06-07T03:43:46.576Z,47.60
2023-06-07T03:46:14.117Z,47.80
2023-06-07T03:48:41.805Z,47.74
2023-06-07T03:51:09.810Z,47.80
2023-06-07T03:53:37.667Z,47.82
2023-06-07T03:56:07.323Z,47.73
2023-06-07T03:58:34.924Z,47.84
2023-06-07T04:01:02.549Z,47.69
2023-06-07T04:03:31.846Z,47.76
2023-06-07T04:06:00.422Z,47.70
2023-06-07T04:08:28.927Z,47.81
2023-06-07T04:10:56.722Z,47.97
2023-06-07T04:13:25.865Z,47.89
2023-06-07T04:15:53.522Z,47.88
2023-06-07T04:18:21.439Z,47.89
2023-06-07T04:20:49.049Z,47.82
2023-06-07T04:23:16.801Z,47.75
2023-06-07T04:25:44.584Z,47.80
2023-06-07T04:28:13.250Z,47.82
2023-06-07T04:30:43.362Z,47.57
2023-06-07T04:33:13.663Z,47.68
2023-06-07T04:35:43.797Z,47.63
2023-06-07T04:38:12.819Z,47.25
2023-06-07T04:40:42.279Z,46.08
2023-06-07T04:43:12.165Z,45.17
2023-06-07T04:45:42.364Z,44.50
2023-06-07T04:48:12.746Z,43.79
2023-06-07T04:50:42.431Z,43.30
2023-06-07T04:53:11.868Z,42.84
2023-06-07T04:55:42.093Z,42.07
2023-06-07T04:58:10.175Z,41.90
2023-06-07T05:00:40.130Z,41.32
2023-06-07T05:03:09.702Z,40.47
2023-06-07T05:05:39.167Z,38.92
2023-06-07T05:08:07.068Z,37.38
2023-06-07T05:10:34.907Z,36.24
2023-06-07T05:13:02.492Z,35.19
2023-06-07T05:15:32.097Z,34.30
2023-06-07T05:18:00.739Z,33.63
2023-06-07T05:20:28.766Z,33.32
2023-06-07T05:22:58.259Z,33.08
2023-06-07T05:25:25.873Z,33.22
2023-06-07T05:28:08.108Z,33.32
2023-06-07T05:30:41.466Z,33.97
2023-06-07T05:33:09.481Z,34.83
2023-06-07T05:35:37.179Z,35.58
2023-06-07T05:38:06.290Z,36.55
2023-06-07T05:40:33.885Z,37.26
2023-06-07T05:43:01.463Z,37.99
2023-06-07T05:45:29.131Z,38.26
2023-06-07T05:47:56.757Z,38.77
2023-06-07T05:50:25.112Z,39.07
2023-06-07T05:52:58.144Z,39.41
2023-06-07T05:55:28.038Z,39.56
2023-06-07T05:57:55.905Z,39.80
2023-06-07T06:00:24.868Z,40.16
2023-06-07T06:02:54.042Z,39.95
2023-06-07T06:05:24.621Z,40.21
2023-06-07T06:07:52.625Z,40.71
2023-06-07T06:10:20.199Z,41.10
2023-06-07T06:12:49.125Z,41.31
2023-06-07T06:15:16.727Z,41.60
2023-06-07T06:17:44.419Z,41.50
2023-06-07T06:20:15.877Z,41.65
2023-06-07T06:22:43.459Z,41.87
2023-06-07T06:25:13.203Z,41.92
2023-06-07T06:27:41.750Z,42.19
2023-06-07T06:30:11.758Z,42.19
2023-06-07T06:32:40.058Z,42.24
2023-06-07T06:35:08.472Z,42.45
2023-06-07T06:37:36.844Z,42.28
2023-06-07T06:40:06.451Z,42.89
2023-06-07T06:42:34.223Z,42.63
2023-06-07T06:45:01.804Z,42.84
2023-06-07T06:47:30.729Z,42.75
2023-06-07T06:50:01.048Z,42.87
2023-06-07T06:52:28.650Z,42.88
2023-06-07T06:54:56.210Z,42.67
2023-06-07T06:57:23.890Z,42.87
2023-06-07T06:59:51.484Z,43.27
2023-06-07T07:02:19.156Z,43.19
2023-06-07T07:04:48.210Z,42.93
2023-06-07T07:07:16.035Z,43.10
2023-06-07T07:09:43.593Z,42.86
2023-06-07T07:12:11.943Z,42.94
2023-06-07T07:14:39.533Z,43.21
2023-06-07T07:17:07.517Z,43.35
2023-06-07T07:19:35.168Z,43.33
2023-06-07T07:22:04.380Z,43.11
2023-06-07T07:24:31.972Z,43.19
2023-06-07T07:26:59.580Z,43.10
2023-06-07T07:29:29.026Z,43.17
2023-06-07T07:31:56.881Z,43.09
2023-06-07T07:34:24.534Z,43.04
2023-06-07T07:36:52.618Z,43.11
2023-06-07T07:39:23.114Z,42.87
2023-06-07T07:41:50.813Z,43.13
2023-06-07T07:44:18.498Z,43.05
2023-06-07T07:46:46.136Z,42.82
2023-06-07T07:49:13.734Z,43.20
2023-06-07T07:51:41.398Z,42.74
2023-06-07T07:54:09.230Z,42.91
2023-06-07T07:56:38.209Z,43.19
2023-06-07T07:59:05.762Z,43.18
2023-06-07T08:01:33.655Z,42.98
2023-06-07T08:04:01.379Z,42.85
2023-06-07T08:06:28.983Z,42.88
2023-06-07T08:08:57.116Z,43.07
2023-06-07T08:11:26.188Z,42.94
2023-06-07T08:13:55.100Z,43.11
2023-06-07T08:16:22.736Z,43.02
2023-06-07T08:18:56.792Z,43.35
2023-06-07T08:21:24.813Z,42.84
2023-06-07T08:23:52.569Z,43.34
2023-06-07T08:26:20.269Z,43.16
2023-06-07T08:28:47.970Z,42.33
2023-06-07T08:31:16.992Z,42.91
2023-06-07T08:33:44.606Z,43.10
2023-06-07T08:36:12.588Z,43.00
2023-06-07T08:38:40.959Z,43.03
2023-06-07T08:41:08.609Z,42.99
2023-06-07T08:43:37.182Z,42.91
2023-06-07T08:46:05.649Z,43.05
2023-06-07T08:48:35.421Z,43.01
2023-06-07T08:51:04.809Z,42.89
2023-06-07T08:53:48.934Z,42.93
2023-06-07T08:56:18.314Z,42.82
2023-06-07T08:58:46.478Z,43.00
2023-06-07T09:01:14.287Z,42.87
2023-06-07T09:03:43.406Z,42.99
2023-06-07T09:06:13.081Z,43.07
2023-06-07T09:08:40.740Z,42.94
2023-06-07T09:11:08.323Z,42.79
2023-06-07T09:13:37.592Z,42.75
2023-06-07T09:16:05.645Z,43.12
2023-06-07T09:18:44.641Z,42.71
2023-06-07T09:21:23.138Z,42.71
2023-06-07T09:23:51.205Z,42.55
2023-06-07T09:26:21.063Z,42.63
2023-06-07T09:28:49.137Z,42.34
2023-06-07T09:31:30.165Z,42.73
2023-06-07T09:33:59.190Z,42.05
2023-06-07T09:36:29.738Z,42.63
2023-06-07T09:38:58.213Z,42.51
2023-06-07T09:41:31.809Z,42.15
2023-06-07T09:43:59.559Z,42.33
2023-06-07T09:46:35.603Z,42.27
2023-06-07T09:49:05.391Z,42.27
2023-06-07T09:51:40.826Z,42.21
2023-06-07T09:54:09.383Z,41.98
2023-06-07T09:56:41.174Z,42.40
2023-06-07T09:59:10.038Z,42.13
2023-06-07T10:01:40.135Z,42.12
2023-06-07T10:04:11.893Z,41.77
2023-06-07T10:06:42.604Z,41.93
2023-06-07T10:09:11.776Z,41.88
2023-06-07T10:11:40.608Z,42.21
2023-06-07T10:14:12.270Z,41.77
2023-06-07T10:16:46.647Z,41.94
2023-06-07T10:19:22.882Z,41.87
2023-06-07T10:21:52.920Z,41.96
2023-06-07T10:24:24.096Z,41.58
2023-06-07T10:26:56.014Z,41.93
2023-06-07T10:29:30.775Z,41.74
2023-06-07T10:32:08.538Z,41.01
2023-06-07T10:34:39.272Z,41.86
2023-06-07T10:37:09.277Z,41.60
2023-06-07T10:39:39.315Z,41.98
2023-06-07T10:42:07.628Z,41.53
2023-06-07T10:44:37.415Z,41.71
2023-06-07T10:47:26.537Z,41.73
2023-06-07T10:49:55.904Z,41.54
2023-06-07T10:52:24.284Z,41.70
2023-06-07T10:54:52.805Z,41.64
2023-06-07T10:57:34.208Z,41.69
2023-06-07T11:00:34.361Z,41.76
2023-06-07T11:03:42.857Z,41.51
2023-06-07T11:06:12.200Z,41.81
2023-06-07T11:08:40.363Z,41.53
2023-06-07T11:11:49.745Z,41.83
2023-06-07T11:14:17.303Z,41.59
2023-06-07T11:16:45.045Z,41.38
2023-06-07T11:19:17.943Z,41.60
2023-06-07T11:22:05.627Z,41.61
2023-06-07T11:24:37.414Z,41.51
2023-06-07T11:27:10.632Z,41.35
2023-06-07T11:29:38.757Z,41.10
2023-06-07T11:32:08.789Z,41.22
2023-06-07T11:34:36.723Z,41.21
2023-06-07T11:37:10.329Z,41.10
2023-06-07T11:39:38.033Z,40.97
2023-06-07T11:42:07.006Z,40.94
2023-06-07T11:44:36.316Z,40.93
2023-06-07T11:47:06.824Z,40.92
2023-06-07T11:49:36.287Z,40.87
2023-06-07T11:52:04.051Z,40.43
2023-06-07T11:54:33.529Z,40.71
2023-06-07T11:57:02.605Z,40.93
2023-06-07T11:59:30.863Z,40.26
2023-06-07T12:01:59.200Z,40.88
2023-06-07T12:04:28.256Z,40.83
2023-06-07T12:06:56.087Z,40.58
2023-06-07T12:09:23.728Z,40.86
2023-06-07T12:11:54.608Z,40.33
2023-06-07T12:14:35.502Z,40.23
2023-06-07T12:17:03.431Z,40.41
2023-06-07T12:19:31.067Z,40.52
2023-06-07T12:22:07.402Z,40.70
2023-06-07T12:24:39.970Z,40.64
2023-06-07T12:27:12.968Z,40.65
2023-06-07T12:29:41.794Z,40.01
2023-06-07T12:32:11.142Z,40.50
2023-06-07T12:34:44.307Z,38.97
2023-06-07T12:37:12.207Z,40.37
2023-06-07T12:39:40.330Z,39.84
2023-06-07T12:42:09.689Z,39.35
2023-06-07T12:44:37.523Z,39.86
2023-06-07T12:47:05.476Z,40.02
2023-06-07T12:49:33.372Z,40.10
2023-06-07T12:52:00.971Z,39.15
2023-06-07T12:54:29.630Z,38.99
2023-06-07T12:56:57.468Z,39.87
2023-06-07T12:59:26.402Z,39.13
2023-06-07T13:01:54.242Z,39.80
2023-06-07T13:04:22.804Z,39.57
2023-06-07T13:06:50.565Z,39.54
2023-06-07T13:09:18.216Z,39.29
2023-06-07T13:11:45.758Z,38.98
2023-06-07T13:14:13.325Z,39.21
2023-06-07T13:16:42.603Z,39.43
2023-06-07T13:19:10.253Z,39.04
2023-06-07T13:21:38.433Z,40.00
2023-06-07T13:24:07.027Z,39.77
2023-06-07T13:26:35.087Z,39.25
2023-06-07T13:29:02.704Z,38.88
2023-06-07T13:31:30.378Z,39.05
2023-06-07T13:33:59.305Z,39.31
2023-06-07T13:36:26.879Z,38.78
2023-06-07T13:38:55.142Z,38.42
2023-06-07T13:41:23.308Z,38.91
2023-06-07T13:43:59.953Z,38.79
2023-06-07T13:46:35.840Z,39.15
2023-06-07T13:49:06.699Z,38.41
2023-06-07T13:51:35.191Z,39.41
2023-06-07T13:54:03.078Z,38.67
2023-06-07T13:56:30.682Z,38.12
2023-06-07T13:58:59.960Z,39.47
2023-06-07T14:01:28.873Z,38.77
2023-06-07T14:03:59.941Z,38.19
2023-06-07T14:06:29.676Z,39.13
2023-06-07T14:08:57.376Z,38.96
2023-06-07T14:11:25.681Z,35.76
2023-06-07T14:13:53.394Z,37.99
2023-06-07T14:16:21.909Z,39.28
2023-06-07T14:18:49.730Z,39.63
2023-06-07T14:21:17.686Z,39.43
2023-06-07T14:23:46.846Z,39.70
2023-06-07T14:26:15.865Z,39.34
2023-06-07T14:28:44.543Z,38.64
2023-06-07T14:31:12.822Z,39.32
2023-06-07T14:33:40.518Z,39.45
2023-06-07T14:36:08.399Z,38.95
2023-06-07T14:38:36.990Z,39.13
2023-06-07T14:41:06.096Z,39.48
2023-06-07T14:43:33.727Z,39.63
2023-06-07T14:46:01.396Z,39.62
2023-06-07T14:48:29.096Z,39.74
2023-06-07T14:50:56.867Z,39.50
2023-06-07T14:53:24.688Z,39.61
2023-06-07T14:55:52.302Z,39.54
2023-06-07T14:58:21.319Z,39.73
2023-06-07T15:00:50.095Z,39.70
2023-06-07T15:03:18.153Z,39.60
2023-06-07T15:05:46.025Z,39.84
2023-06-07T15:08:13.764Z,39.97
2023-06-07T15:10:41.980Z,39.95
2023-06-07T15:13:09.672Z,39.81
2023-06-07T15:15:39.321Z,39.84
2023-06-07T15:18:07.046Z,39.50
2023-06-07T15:20:34.628Z,39.89
2023-06-07T15:23:02.206Z,39.98
2023-06-07T15:25:31.812Z,39.86
2023-06-07T15:28:00.036Z,39.92
2023-06-07T15:30:27.900Z,39.82
2023-06-07T15:32:56.907Z,40.00
2023-06-07T15:35:24.517Z,39.98
2023-06-07T15:37:52.199Z,40.28
2023-06-07T15:40:19.774Z,39.98
2023-06-07T15:42:47.445Z,39.87
2023-06-07T15:45:16.402Z,39.94
2023-06-07T15:48:00.717Z,39.58
2023-06-07T15:50:30.062Z,37.77
2023-06-07T15:52:59.182Z,37.66
2023-06-07T15:55:28.635Z,37.29
2023-06-07T15:57:56.977Z,36.81
2023-06-07T16:00:37.092Z,36.06
2023-06-07T16:03:08.225Z,35.99
2023-06-07T16:05:36.693Z,35.74
2023-06-07T16:08:10.323Z,35.40
2023-06-07T16:10:40.897Z,34.71
2023-06-07T16:13:08.557Z,35.26
2023-06-07T16:15:37.112Z,35.15
2023-06-07T16:18:06.362Z,35.16
2023-06-07T16:20:35.611Z,35.73
2023-06-07T16:23:03.372Z,35.82
2023-06-07T16:25:30.997Z,35.97
2023-06-07T16:27:58.598Z,35.49
2023-06-07T16:30:26.545Z,35.58
2023-06-07T16:32:54.974Z,35.08
2023-06-07T16:35:22.951Z,35.37
2023-06-07T16:37:52.078Z,35.31
2023-06-07T16:40:19.876Z,34.45
2023-06-07T16:42:48.634Z,34.43
2023-06-07T16:45:16.378Z,34.66
2023-06-07T16:47:44.047Z,34.88
2023-06-07T16:50:12.430Z,34.87
2023-06-07T16:52:40.117Z,35.05
2023-06-07T16:55:10.466Z,34.90
2023-06-07T16:57:40.446Z,34.43
2023-06-07T17:00:09.973Z,34.78
2023-06-07T17:02:37.764Z,34.59
2023-06-07T17:05:06.233Z,34.63
2023-06-07T17:07:33.849Z,34.78
2023-06-07T17:10:01.504Z,34.58
2023-06-07T17:12:30.578Z,34.44
2023-06-07T17:14:58.266Z,34.26
2023-06-07T17:17:26.747Z,34.32
2023-06-07T17:19:54.515Z,34.41
2023-06-07T17:22:22.290Z,34.39
2023-06-07T17:24:49.917Z,34.22
2023-06-07T17:27:17.627Z,35.07
2023-06-07T17:29:46.656Z,34.53
2023-06-07T17:32:14.337Z,34.61
2023-06-07T17:34:42.011Z,34.87
2023-06-07T17:37:11.500Z,35.17
2023-06-07T17:39:39.145Z,34.90
2023-06-07T17:42:07.659Z,35.15
2023-06-07T17:44:35.331Z,34.79
2023-06-07T17:47:04.746Z,34.63
2023-06-07T17:49:32.341Z,34.75
2023-06-07T17:52:06.253Z,34.47
2023-06-07T17:54:47.456Z,34.31
2023-06-07T17:57:15.143Z,34.50
2023-06-07T17:59:43.743Z,34.50
2023-06-07T18:02:12.724Z,34.15
2023-06-07T18:04:40.396Z,34.21
2023-06-07T18:07:08.004Z,34.18
2023-06-07T18:09:36.610Z,33.92
2023-06-07T18:12:04.556Z,33.68
2023-06-07T18:14:32.109Z,33.68
2023-06-07T18:16:59.868Z,34.37
2023-06-07T18:19:28.774Z,34.48
2023-06-07T18:21:57.888Z,34.84
2023-06-07T18:24:25.462Z,34.62
2023-06-07T18:26:53.062Z,34.63
2023-06-07T18:29:20.723Z,34.16
2023-06-07T18:31:48.504Z,34.66
2023-06-07T18:34:17.401Z,34.69
2023-06-07T18:36:47.424Z,35.06
2023-06-07T18:39:15.233Z,35.64
2023-06-07T18:41:43.235Z,35.41
2023-06-07T18:44:10.995Z,35.85
2023-06-07T18:46:38.897Z,36.54
2023-06-07T18:49:06.575Z,36.71
2023-06-07T18:51:34.274Z,37.11
2023-06-07T18:54:03.266Z,37.57
2023-06-07T18:56:30.891Z,37.52
2023-06-07T18:58:58.725Z,37.26
2023-06-07T19:01:38.020Z,37.17
2023-06-07T19:04:10.374Z,37.38
2023-06-07T19:06:38.027Z,37.35
2023-06-07T19:09:07.233Z,36.91
2023-06-07T19:11:35.893Z,37.13
2023-06-07T19:14:05.162Z,37.24
2023-06-07T19:16:32.984Z,37.38
2023-06-07T19:19:00.792Z,37.28
2023-06-07T19:21:30.269Z,37.53
2023-06-07T19:23:58.427Z,37.35
2023-06-07T19:26:29.374Z,37.43
2023-06-07T19:28:58.504Z,36.96
2023-06-07T19:31:26.590Z,37.10
2023-06-07T19:33:54.399Z,37.02
2023-06-07T19:36:22.297Z,36.96
2023-06-07T19:38:49.974Z,36.85
2023-06-07T19:41:17.823Z,36.99
2023-06-07T19:43:46.786Z,37.68
2023-06-07T19:46:14.506Z,37.74
2023-06-07T19:48:42.129Z,37.69
2023-06-07T19:51:10.087Z,37.63
2023-06-07T19:53:37.787Z,37.96
2023-06-07T19:56:06.278Z,37.83
2023-06-07T19:58:35.319Z,37.98
2023-06-07T20:01:04.455Z,38.26
2023-06-07T20:03:32.187Z,38.12
2023-06-07T20:06:00.050Z,37.78
2023-06-07T20:08:27.836Z,38.03
2023-06-07T20:10:55.400Z,38.01
2023-06-07T20:13:24.150Z,37.94
2023-06-07T20:15:51.757Z,37.66
2023-06-07T20:18:20.736Z,37.77
2023-06-07T20:20:48.518Z,37.74
2023-06-07T20:23:16.144Z,38.07
2023-06-07T20:25:43.754Z,38.12
2023-06-07T20:28:11.320Z,38.35
2023-06-07T20:30:39.189Z,38.41
2023-06-07T20:33:08.304Z,38.25
2023-06-07T20:35:37.269Z,38.51
2023-06-07T20:38:04.900Z,38.74
2023-06-07T20:40:32.482Z,38.52
2023-06-07T20:43:00.195Z,38.95
2023-06-07T20:45:27.868Z,39.03
2023-06-07T20:47:55.549Z,38.96
2023-06-07T20:50:23.177Z,38.80
2023-06-07T20:52:52.208Z,38.64
2023-06-07T20:55:19.847Z,38.77
2023-06-07T20:57:47.423Z,38.39
2023-06-07T21:00:16.077Z,39.22
2023-06-07T21:02:43.699Z,38.88
2023-06-07T21:05:11.367Z,38.61
2023-06-07T21:07:38.931Z,38.79
2023-06-07T21:10:09.312Z,38.81
2023-06-07T21:12:37.090Z,38.77
2023-06-07T21:15:05.410Z,38.72
2023-06-07T21:17:34.340Z,38.87
2023-06-07T21:20:02.066Z,38.94
2023-06-07T21:22:29.709Z,39.00
2023-06-07T21:24:57.319Z,39.51
2023-06-07T21:27:26.378Z,39.62
2023-06-07T21:29:54.119Z,39.76
2023-06-07T21:32:21.710Z,39.71
2023-06-07T21:34:49.384Z,40.05
2023-06-07T21:37:17.148Z,39.97
2023-06-07T21:39:45.077Z,40.32
2023-06-07T21:42:12.980Z,40.29
2023-06-07T21:44:41.866Z,40.59
2023-06-07T21:47:09.473Z,40.65
2023-06-07T21:49:37.088Z,40.71
2023-06-07T21:52:04.906Z,40.95
2023-06-07T21:54:32.538Z,41.08
2023-06-07T21:57:00.066Z,41.30
2023-06-07T21:59:27.690Z,41.19
2023-06-07T22:01:57.654Z,41.26
2023-06-07T22:04:25.570Z,41.18
2023-06-07T22:06:53.214Z,41.44
2023-06-07T22:09:20.926Z,41.42
2023-06-07T22:11:48.487Z,41.48
2023-06-07T22:14:16.104Z,41.79
2023-06-07T22:16:45.751Z,41.95
2023-06-07T22:19:16.026Z,42.13
2023-06-07T22:21:43.683Z,42.17
2023-06-07T22:24:11.764Z,42.40
2023-06-07T22:26:39.633Z,42.41
2023-06-07T22:29:07.218Z,42.44
2023-06-07T22:31:35.522Z,42.75
2023-06-07T22:34:05.029Z,42.72
2023-06-07T22:36:38.981Z,42.93
2023-06-07T22:39:07.450Z,42.96
2023-06-07T22:41:35.000Z,42.83
2023-06-07T22:44:03.320Z,42.94
2023-06-07T22:46:32.006Z,42.84
2023-06-07T22:49:01.575Z,43.08
2023-06-07T22:51:34.061Z,43.37
2023-06-07T22:54:03.855Z,43.33
2023-06-07T22:56:31.913Z,43.37
2023-06-07T22:58:59.529Z,43.70
2023-06-07T23:01:30.542Z,43.58
2023-06-07T23:03:58.414Z,43.73
2023-06-07T23:06:35.533Z,43.77
2023-06-07T23:09:05.152Z,43.55
2023-06-07T23:11:33.361Z,43.83
2023-06-07T23:14:01.051Z,43.75
2023-06-07T23:16:29.170Z,43.88
2023-06-07T23:18:58.001Z,43.97
2023-06-07T23:21:30.130Z,44.03
2023-06-07T23:23:58.481Z,44.14
2023-06-07T23:26:27.408Z,44.20
2023-06-07T23:28:54.998Z,44.15
2023-06-07T23:31:22.786Z,44.48
2023-06-07T23:33:50.861Z,44.31
2023-06-07T23:36:21.302Z,44.34
2023-06-07T23:38:49.232Z,44.34
2023-06-07T23:41:16.824Z,44.19
2023-06-07T23:43:46.094Z,44.44
2023-06-07T23:46:13.720Z,44.43
2023-06-07T23:48:41.322Z,44.50
2023-06-07T23:51:08.988Z,44.36
2023-06-07T23:53:36.570Z,44.47
2023-06-07T23:56:04.146Z,44.47
2023-06-07T23:58:31.766Z,44.49
